Terminal Aerodrome Forecast
Issued by NWS Los Angeles, CA

Home | Current Version | Previous Version | Text Only | Print | Product List | Glossary On
Versions: 1 2 3 4 5 6 7 8 9 10 11 12 13 14 15 16 17 18 19 20 21 22 23 24 25 26 27 28 29
000
FTUS46 KLOX 200538
TAFSMX
TAF
KSMX 200538Z 2006/2106 12007KT P6SM -RA BKN030
     FM200900 16008KT 5SM -RA BR OVC015
     FM201800 16015G20KT 4SM RA BR OVC008
     FM202200 VRB05KT 6SM BR OVC007
     FM210400 14005KT 6SM BR OVC015=

USA.gov is the U.S. government's official web portal to all federal, state and local government web resources and services.